createdAt,value
2023-08-13T00:03:27.041Z,22.10
2023-08-13T00:07:17.584Z,22.10
2023-08-13T00:11:07.241Z,22.00
2023-08-13T00:14:58.988Z,22.00
2023-08-13T00:18:49.515Z,22.08
2023-08-13T00:22:39.217Z,22.10
2023-08-13T00:26:32.778Z,22.10
2023-08-13T00:30:27.014Z,22.20
2023-08-13T00:34:16.777Z,22.26
2023-08-13T00:38:06.541Z,22.30
2023-08-13T00:41:56.005Z,22.30
2023-08-13T00:45:51.198Z,22.20
2023-08-13T00:49:56.755Z,22.10
2023-08-13T00:53:46.988Z,22.10
2023-08-13T00:57:35.458Z,22.10
2023-08-13T01:01:23.858Z,22.00
2023-08-13T01:05:06.802Z,22.08
2023-08-13T01:09:15.858Z,22.08
2023-08-13T01:13:12.382Z,22.10
2023-08-13T01:17:13.442Z,22.10
2023-08-13T01:21:02.929Z,22.12
2023-08-13T01:24:50.959Z,22.10
2023-08-13T01:28:56.919Z,22.00
2023-08-13T01:32:47.254Z,21.90
2023-08-13T01:36:37.733Z,21.90
2023-08-13T01:40:27.227Z,21.88
2023-08-13T01:44:17.599Z,21.90
2023-08-13T01:48:07.113Z,21.80
2023-08-13T01:51:56.556Z,21.76
2023-08-13T01:55:47.842Z,21.60
2023-08-13T01:59:38.312Z,21.60
2023-08-13T02:03:27.752Z,21.60
2023-08-13T02:07:17.092Z,21.60
2023-08-13T02:11:07.900Z,21.70
2023-08-13T02:14:58.914Z,21.60
2023-08-13T02:18:48.851Z,21.64
2023-08-13T02:22:38.311Z,21.60
2023-08-13T02:26:28.557Z,21.66
2023-08-13T02:30:19.678Z,21.70
2023-08-13T02:34:09.600Z,21.70
2023-08-13T02:37:59.044Z,21.70
2023-08-13T02:41:49.465Z,21.70
2023-08-13T02:45:38.887Z,21.70
2023-08-13T02:49:28.904Z,21.70
2023-08-13T02:53:18.990Z,21.70
2023-08-13T02:57:09.628Z,21.62
2023-08-13T03:00:59.082Z,21.60
2023-08-13T03:04:48.656Z,21.50
2023-08-13T03:08:38.545Z,21.50
2023-08-13T03:12:33.877Z,21.40
2023-08-13T03:16:25.758Z,21.26
2023-08-13T03:20:18.988Z,21.18
2023-08-13T03:24:09.151Z,21.08
2023-08-13T03:27:59.229Z,21.00
2023-08-13T03:31:49.469Z,21.02
2023-08-13T03:35:45.535Z,21.10
2023-08-13T03:39:35.169Z,20.90
2023-08-13T03:43:24.695Z,20.82
2023-08-13T03:47:16.591Z,20.70
2023-08-13T03:51:06.674Z,20.70
2023-08-13T03:54:56.676Z,20.60
2023-08-13T03:58:46.078Z,20.70
2023-08-13T04:02:36.247Z,20.74
2023-08-13T04:06:26.055Z,20.90
2023-08-13T04:10:16.008Z,20.96
2023-08-13T04:14:05.944Z,21.00
2023-08-13T04:17:55.243Z,21.08
2023-08-13T04:21:45.071Z,21.00
2023-08-13T04:25:34.037Z,21.00
2023-08-13T04:29:24.314Z,21.00
2023-08-13T04:33:12.898Z,21.00
2023-08-13T04:37:02.180Z,21.00
2023-08-13T04:40:51.962Z,21.10
2023-08-13T04:44:41.871Z,21.10
2023-08-13T04:48:31.886Z,21.10
2023-08-13T04:52:14.637Z,21.20
2023-08-13T04:56:04.892Z,21.20
2023-08-13T05:00:01.188Z,21.20
2023-08-13T05:03:50.626Z,21.20
2023-08-13T05:07:40.678Z,21.28
2023-08-13T05:11:29.198Z,21.30
2023-08-13T05:15:19.283Z,21.40
2023-08-13T05:19:08.629Z,21.40
2023-08-13T05:22:58.033Z,21.42
2023-08-13T05:26:49.359Z,21.50
2023-08-13T05:30:36.618Z,21.60
2023-08-13T05:34:26.863Z,21.60
2023-08-13T05:38:35.592Z,21.66
2023-08-13T05:42:22.938Z,21.80
2023-08-13T05:46:10.876Z,21.90
2023-08-13T05:50:01.459Z,21.90
2023-08-13T05:53:51.860Z,22.00
2023-08-13T06:01:48.691Z,22.16
2023-08-13T06:06:02.662Z,22.20
2023-08-13T06:14:03.039Z,22.50
2023-08-13T06:17:51.577Z,22.60
2023-08-13T06:21:51.199Z,22.70
2023-08-13T06:25:40.683Z,22.90
2023-08-13T06:29:31.541Z,22.92
2023-08-13T06:33:22.040Z,23.10
2023-08-13T06:37:11.909Z,23.20
2023-08-13T06:41:02.579Z,23.30
2023-08-13T06:44:44.914Z,23.40
2023-08-13T06:48:33.895Z,23.58
2023-08-13T06:52:23.257Z,23.70
2023-08-13T06:56:17.357Z,23.80
2023-08-13T07:00:03.321Z,23.80
2023-08-13T07:03:58.797Z,23.90
2023-08-13T07:07:47.044Z,23.90
2023-08-13T07:16:32.171Z,24.08
2023-08-13T07:20:23.659Z,24.20
2023-08-13T07:27:47.333Z,24.30
2023-08-13T07:31:36.577Z,24.34
2023-08-13T07:35:38.873Z,24.40
2023-08-13T07:39:28.985Z,24.50
2023-08-13T07:52:19.474Z,24.80
2023-08-13T07:56:09.186Z,24.82
2023-08-13T08:00:06.219Z,25.00
2023-08-13T08:03:57.480Z,25.10
2023-08-13T08:07:45.027Z,25.20
2023-08-13T08:11:34.261Z,25.30
2023-08-13T08:15:29.192Z,25.50
2023-08-13T08:23:55.605Z,25.80
2023-08-13T08:27:47.163Z,25.86
2023-08-13T08:35:53.494Z,26.00
2023-08-13T08:39:39.419Z,26.10
2023-08-13T08:47:12.342Z,26.20
2023-08-13T08:51:21.127Z,26.34
2023-08-13T08:55:43.018Z,26.50
2023-08-13T08:59:31.435Z,26.68
2023-08-13T09:03:32.567Z,26.80
2023-08-13T09:07:06.252Z,26.90
2023-08-13T09:15:38.398Z,27.10
2023-08-13T09:19:25.099Z,27.20
2023-08-13T09:23:14.727Z,27.30
2023-08-13T09:27:06.583Z,27.30
2023-08-13T09:31:01.958Z,27.32
2023-08-13T09:35:00.628Z,27.32
2023-08-13T09:39:02.763Z,27.30
2023-08-13T09:47:24.662Z,27.40
2023-08-13T09:51:19.560Z,27.40
2023-08-13T09:55:22.040Z,27.50
2023-08-13T09:59:11.471Z,27.60
2023-08-13T10:03:01.180Z,27.64
2023-08-13T10:10:53.658Z,27.80
2023-08-13T10:14:59.132Z,27.70
2023-08-13T10:18:30.071Z,27.70
2023-08-13T10:26:58.898Z,27.70
2023-08-13T10:31:03.204Z,27.82
2023-08-13T10:35:02.056Z,28.02
2023-08-13T10:39:05.759Z,28.20
2023-08-13T10:43:11.678Z,28.30
2023-08-13T10:47:03.788Z,28.30
2023-08-13T10:54:29.905Z,28.50
2023-08-13T10:58:20.275Z,28.50
2023-08-13T11:02:14.529Z,28.60
2023-08-13T11:06:05.767Z,28.72
2023-08-13T11:13:55.101Z,28.70
2023-08-13T11:17:59.557Z,28.68
2023-08-13T11:21:52.243Z,28.60
2023-08-13T11:25:35.341Z,28.66
2023-08-13T11:29:26.879Z,28.60
2023-08-13T11:33:33.374Z,28.78
2023-08-13T11:41:22.138Z,29.00
2023-08-13T11:45:14.390Z,29.00
2023-08-13T11:49:06.689Z,29.10
2023-08-13T11:52:40.671Z,29.20
2023-08-13T11:56:36.239Z,29.10
2023-08-13T12:00:11.461Z,29.00
2023-08-13T12:04:14.629Z,29.06
2023-08-13T12:08:01.840Z,29.10
2023-08-13T12:11:57.648Z,29.10
2023-08-13T12:15:48.163Z,29.00
2023-08-13T12:19:30.684Z,29.10
2023-08-13T12:23:19.299Z,29.20
2023-08-13T12:27:12.056Z,29.20
2023-08-13T12:31:12.601Z,29.20
2023-08-13T12:35:02.475Z,29.20
2023-08-13T12:38:47.681Z,29.30
2023-08-13T12:50:24.671Z,29.30
2023-08-13T12:53:54.168Z,29.32
2023-08-13T13:01:49.503Z,29.50
2023-08-13T13:05:36.860Z,29.50
2023-08-13T13:09:24.427Z,29.46
2023-08-13T13:21:27.538Z,29.40
2023-08-13T13:25:15.357Z,29.40
2023-08-13T13:29:06.199Z,29.50
2023-08-13T13:32:50.385Z,29.50
2023-08-13T13:40:51.861Z,29.44
2023-08-13T13:48:22.434Z,29.40
2023-08-13T14:00:27.026Z,29.30
2023-08-13T14:04:07.675Z,29.20
2023-08-13T14:08:03.323Z,29.20
2023-08-13T14:11:52.972Z,29.20
2023-08-13T14:15:43.214Z,29.22
2023-08-13T14:19:31.145Z,29.20
2023-08-13T14:23:18.431Z,29.10
2023-08-13T14:27:09.420Z,29.10
2023-08-13T14:31:11.396Z,29.20
2023-08-13T14:34:53.786Z,29.20
2023-08-13T14:38:43.637Z,29.10
2023-08-13T14:42:30.988Z,29.08
2023-08-13T14:46:24.077Z,29.00
2023-08-13T14:53:27.545Z,29.00
2023-08-13T14:57:20.958Z,29.00
2023-08-13T15:01:08.723Z,29.00
2023-08-13T15:04:40.723Z,28.94
2023-08-13T15:08:15.859Z,28.90
2023-08-13T15:11:55.226Z,28.90
2023-08-13T15:15:38.238Z,28.90
2023-08-13T15:23:56.931Z,28.80
2023-08-13T15:27:32.770Z,28.80
2023-08-13T15:31:07.834Z,28.76
2023-08-13T15:35:17.587Z,28.74
2023-08-13T15:39:05.042Z,28.70
2023-08-13T15:42:54.605Z,28.70
2023-08-13T15:51:12.957Z,28.70
2023-08-13T15:55:00.472Z,28.60
2023-08-13T15:58:47.636Z,28.60
2023-08-13T16:02:46.827Z,28.60
2023-08-13T16:06:57.649Z,28.60
2023-08-13T16:10:47.527Z,28.50
2023-08-13T16:14:41.269Z,28.50
2023-08-13T16:18:28.845Z,28.50
2023-08-13T16:22:21.498Z,28.42
2023-08-13T16:30:24.158Z,28.30
2023-08-13T16:34:09.780Z,28.30
2023-08-13T16:50:12.499Z,28.10
2023-08-13T16:54:04.288Z,28.00
2023-08-13T16:57:55.703Z,28.00
2023-08-13T17:05:53.103Z,27.80
2023-08-13T17:09:42.701Z,27.80
2023-08-13T17:13:33.133Z,27.70
2023-08-13T17:17:26.495Z,27.64
2023-08-13T17:21:18.600Z,27.60
2023-08-13T17:25:02.912Z,27.60
2023-08-13T17:28:45.823Z,27.52
2023-08-13T17:32:37.283Z,27.50
2023-08-13T17:36:33.958Z,27.50
2023-08-13T17:40:24.926Z,27.40
2023-08-13T17:44:13.326Z,27.40
2023-08-13T17:48:02.788Z,27.30
2023-08-13T17:51:52.052Z,27.30
2023-08-13T17:55:34.517Z,27.22
2023-08-13T17:59:24.174Z,27.20
2023-08-13T18:03:11.432Z,27.20
2023-08-13T18:07:00.870Z,27.10
2023-08-13T18:10:52.085Z,27.10
2023-08-13T18:14:43.580Z,27.02
2023-08-13T18:18:33.019Z,27.00
2023-08-13T18:22:21.670Z,27.00
2023-08-13T18:26:03.957Z,26.92
2023-08-13T18:29:53.380Z,26.90
2023-08-13T18:33:43.092Z,26.90
2023-08-13T18:37:25.462Z,26.88
2023-08-13T18:41:15.356Z,26.80
2023-08-13T18:45:09.871Z,26.80
2023-08-13T18:48:59.444Z,26.76
2023-08-13T18:52:44.732Z,26.70
2023-08-13T18:56:35.841Z,26.70
2023-08-13T19:00:23.949Z,26.64
2023-08-13T19:07:12.110Z,26.60
2023-08-13T19:10:52.894Z,26.52
2023-08-13T19:14:38.834Z,26.50
2023-08-13T19:17:29.930Z,26.40
2023-08-13T19:21:20.413Z,26.38
2023-08-13T19:25:11.025Z,26.30
2023-08-13T19:29:02.889Z,26.20
2023-08-13T19:32:55.802Z,26.14
2023-08-13T19:36:40.952Z,26.10
2023-08-13T19:40:31.166Z,26.00
2023-08-13T19:44:32.276Z,25.98
2023-08-13T19:48:17.047Z,25.90
2023-08-13T19:52:09.358Z,25.90
2023-08-13T19:55:58.727Z,25.90
2023-08-13T19:59:41.153Z,25.90
2023-08-13T20:03:31.610Z,25.80
2023-08-13T20:07:06.544Z,25.80
2023-08-13T20:10:56.973Z,25.78
2023-08-13T20:14:48.399Z,25.70
2023-08-13T20:18:40.074Z,25.60
2023-08-13T20:22:29.562Z,25.60
2023-08-13T20:26:19.013Z,25.58
2023-08-13T20:30:08.443Z,25.52
2023-08-13T20:33:50.376Z,25.50
2023-08-13T20:37:40.241Z,25.40
2023-08-13T20:41:29.728Z,25.30
2023-08-13T20:45:19.151Z,25.30
2023-08-13T20:49:09.138Z,25.30
2023-08-13T20:53:04.272Z,25.20
2023-08-13T20:56:53.621Z,25.20
2023-08-13T21:00:44.101Z,25.10
2023-08-13T21:03:39.060Z,25.10
2023-08-13T21:07:27.778Z,25.00
2023-08-13T21:11:18.936Z,24.90
2023-08-13T21:15:08.845Z,24.82
2023-08-13T21:18:59.695Z,24.80
2023-08-13T21:22:49.025Z,24.72
2023-08-13T21:26:38.661Z,24.70
2023-08-13T21:30:28.033Z,24.60
2023-08-13T21:34:17.972Z,24.60
2023-08-13T21:38:08.528Z,24.52
2023-08-13T21:41:57.979Z,24.50
2023-08-13T21:45:45.869Z,24.46
2023-08-13T21:49:35.410Z,24.40
2023-08-13T21:53:25.779Z,24.40
2023-08-13T21:57:15.255Z,24.30
2023-08-13T22:01:05.222Z,24.26
2023-08-13T22:04:51.673Z,24.20
2023-08-13T22:08:38.208Z,24.20
2023-08-13T22:12:27.623Z,24.10
2023-08-13T22:16:19.690Z,24.08
2023-08-13T22:20:14.237Z,23.90
2023-08-13T22:23:57.609Z,23.80
2023-08-13T22:27:49.466Z,23.78
2023-08-13T22:31:39.340Z,23.80
2023-08-13T22:35:29.758Z,23.80
2023-08-13T22:39:16.335Z,23.80
2023-08-13T22:47:10.595Z,23.50
2023-08-13T22:50:57.871Z,23.50
2023-08-13T22:54:48.357Z,23.50
2023-08-13T22:58:37.848Z,23.46
2023-08-13T23:02:23.557Z,23.40
2023-08-13T23:06:02.364Z,23.40
2023-08-13T23:09:56.209Z,23.40
2023-08-13T23:13:47.238Z,23.34
2023-08-13T23:17:40.182Z,23.30
2023-08-13T23:21:50.069Z,23.20
2023-08-13T23:25:42.401Z,23.30
2023-08-13T23:29:32.790Z,23.30
2023-08-13T23:33:20.860Z,23.30
2023-08-13T23:37:11.221Z,23.30
2023-08-13T23:41:01.205Z,23.30
2023-08-13T23:44:53.411Z,23.20
2023-08-13T23:48:43.856Z,23.20
2023-08-13T23:52:34.791Z,23.20
2023-08-13T23:56:26.066Z,23.20
